Time;durP1;ratioP1;P1;durP2;ratioP2;P2;SDS_P1;SDS_P2;PMS_P1;PMS_P2;Temp;Humidity;BMP_temperature;BMP_pressure;BME280_temperature;BME280_humidity;BME280_pressure;Samples;Min_cycle;Max_cycle;Signal;HPM_P1;HPM_P2
2023/05/09 00:01:38;;;;;;;26.85;15.30;;;14.20;99.90;;;;;;4987178;28;20138;-66
2023/05/09 00:04:03;;;;;;;20.13;13.75;;;14.20;99.90;;;;;;5005348;28;20033;-66
2023/05/09 00:06:29;;;;;;;19.70;14.32;;;14.20;99.90;;;;;;5006863;28;20026;-67
2023/05/09 00:08:55;;;;;;;22.15;14.75;;;14.20;99.90;;;;;;5007475;28;20061;-66
2023/05/09 00:11:21;;;;;;;19.48;13.40;;;14.20;99.90;;;;;;5007949;28;20018;-66
2023/05/09 00:13:47;;;;;;;18.85;13.20;;;14.20;99.90;;;;;;5006847;28;20117;-67
2023/05/09 00:16:14;;;;;;;21.85;14.73;;;14.10;99.90;;;;;;5002260;28;20018;-66
2023/05/09 00:18:41;;;;;;;23.90;14.27;;;14.10;99.90;;;;;;5005123;28;20353;-67
2023/05/09 00:21:08;;;;;;;22.67;14.38;;;14.00;99.90;;;;;;5002739;28;20026;-65
2023/05/09 00:23:34;;;;;;;23.77;14.43;;;14.00;99.90;;;;;;4985723;28;20443;-65
2023/05/09 00:26:00;;;;;;;23.80;14.35;;;13.90;99.90;;;;;;5005566;28;20026;-66
2023/05/09 00:28:26;;;;;;;21.55;15.13;;;13.90;99.90;;;;;;5008671;28;20026;-65
2023/05/09 00:30:52;;;;;;;25.98;14.70;;;13.80;99.90;;;;;;5001680;28;20030;-66
2023/05/09 00:33:18;;;;;;;24.73;15.10;;;13.80;99.90;;;;;;5004914;28;20072;-66
2023/05/09 00:35:44;;;;;;;22.83;14.48;;;13.80;99.90;;;;;;5006639;28;20447;-67
2023/05/09 00:38:09;;;;;;;21.42;14.77;;;13.80;99.90;;;;;;5007979;28;20057;-66
2023/05/09 00:40:35;;;;;;;23.10;14.82;;;13.90;99.90;;;;;;5007562;28;20029;-66
2023/05/09 00:43:01;;;;;;;23.38;14.85;;;13.90;99.90;;;;;;4999116;28;20022;-65
2023/05/09 00:45:26;;;;;;;27.50;16.08;;;13.90;99.90;;;;;;5005921;28;20018;-66
2023/05/09 00:47:52;;;;;;;23.88;15.60;;;13.90;99.90;;;;;;5007733;28;20025;-66
2023/05/09 00:50:18;;;;;;;23.90;15.15;;;13.90;99.90;;;;;;5006163;28;20442;-66
2023/05/09 00:52:43;;;;;;;23.05;15.10;;;13.90;99.90;;;;;;5006764;28;20053;-66
2023/05/09 00:55:09;;;;;;;23.63;15.27;;;13.90;99.90;;;;;;5005451;28;20496;-67
2023/05/09 00:57:35;;;;;;;26.48;15.95;;;13.80;99.90;;;;;;5010471;28;20444;-67
2023/05/09 01:00:03;;;;;;;25.55;15.77;;;13.90;99.90;;;;;;5008579;28;20061;-67
2023/05/09 01:02:29;;;;;;;21.88;14.65;;;13.80;99.90;;;;;;4986058;28;20126;-65
2023/05/09 01:04:54;;;;;;;25.58;16.08;;;13.80;99.90;;;;;;5012818;28;20448;-66
2023/05/09 01:07:34;;;;;;;27.10;16.48;;;13.80;99.90;;;;;;5009053;28;20084;-67
2023/05/09 01:10:05;;;;;;;24.52;15.38;;;13.80;99.90;;;;;;5006939;28;20488;-66
2023/05/09 01:12:42;;;;;;;26.00;16.98;;;13.70;99.90;;;;;;5005664;28;20522;-66
2023/05/09 01:15:53;;;;;;;30.00;16.65;;;13.60;99.90;;;;;;5003493;28;20034;-66
2023/05/09 01:18:44;;;;;;;29.70;16.92;;;13.60;99.90;;;;;;4925021;29;20023;-67
2023/05/09 01:21:18;;;;;;;26.10;16.63;;;13.50;99.90;;;;;;4927427;29;20038;-67
2023/05/09 01:23:43;;;;;;;25.83;15.45;;;13.60;99.90;;;;;;4984655;28;20034;-66
2023/05/09 01:26:24;;;;;;;26.02;17.20;;;13.50;99.90;;;;;;5006151;28;20387;-66
2023/05/09 01:29:18;;;;;;;28.15;16.63;;;13.50;99.90;;;;;;5003896;28;20022;-67
2023/05/09 01:31:45;;;;;;;25.40;16.30;;;13.60;99.90;;;;;;4995426;28;20034;-66
2023/05/09 01:34:13;;;;;;;24.50;16.15;;;13.60;99.90;;;;;;4981069;28;20048;-66
2023/05/09 01:36:41;;;;;;;25.48;17.17;;;13.60;99.90;;;;;;5001725;28;20072;-67
2023/05/09 01:39:11;;;;;;;28.30;16.25;;;13.60;99.90;;;;;;5006948;28;20033;-66
2023/05/09 01:41:37;;;;;;;24.20;15.70;;;13.60;99.90;;;;;;4993194;28;20050;-66
2023/05/09 01:44:05;;;;;;;28.23;16.05;;;13.60;99.90;;;;;;5002270;28;20069;-66
2023/05/09 01:46:31;;;;;;;25.23;16.15;;;13.60;99.90;;;;;;5006325;28;20576;-67
2023/05/09 01:48:58;;;;;;;29.13;17.25;;;13.60;99.90;;;;;;5001537;28;20045;-67
2023/05/09 01:51:25;;;;;;;28.27;15.35;;;13.70;99.90;;;;;;5005341;28;20076;-67
2023/05/09 01:53:52;;;;;;;30.90;17.50;;;13.60;99.90;;;;;;5002549;28;20403;-66
2023/05/09 01:56:20;;;;;;;26.80;17.08;;;13.70;99.90;;;;;;5008262;28;20069;-66
2023/05/09 01:58:48;;;;;;;28.50;16.48;;;13.70;99.90;;;;;;5008887;28;20058;-67
2023/05/09 02:01:15;;;;;;;25.10;16.63;;;13.70;99.90;;;;;;5008183;28;20022;-67
2023/05/09 02:03:44;;;;;;;26.23;16.33;;;13.70;99.90;;;;;;4985003;28;20431;-66
2023/05/09 02:06:10;;;;;;;25.45;16.85;;;13.70;99.90;;;;;;5004345;28;20033;-67
2023/05/09 02:08:36;;;;;;;28.20;16.85;;;13.60;99.90;;;;;;5007154;28;20026;-66
2023/05/09 02:11:02;;;;;;;29.13;16.48;;;13.60;99.90;;;;;;5004370;28;20037;-66
2023/05/09 02:13:28;;;;;;;24.60;16.27;;;13.60;99.90;;;;;;5005734;28;20522;-66
2023/05/09 02:15:54;;;;;;;26.90;16.83;;;13.60;99.90;;;;;;5001596;28;20034;-66
2023/05/09 02:18:20;;;;;;;22.17;15.95;;;13.60;99.90;;;;;;4998850;28;20614;-67
2023/05/09 02:20:46;;;;;;;25.20;16.35;;;13.60;99.90;;;;;;5002641;28;20113;-66
2023/05/09 02:23:12;;;;;;;25.42;17.08;;;13.60;99.90;;;;;;4997961;28;20064;-66
2023/05/09 02:25:38;;;;;;;27.30;15.77;;;13.60;99.90;;;;;;5001825;28;20030;-67
2023/05/09 02:28:05;;;;;;;25.52;16.42;;;13.70;99.90;;;;;;4996449;28;20030;-65
2023/05/09 02:30:36;;;;;;;26.60;17.80;;;13.70;99.90;;;;;;4999130;28;20018;-66
2023/05/09 02:33:05;;;;;;;28.02;17.15;;;13.70;99.90;;;;;;5001491;28;20039;-66
2023/05/09 02:35:30;;;;;;;31.05;16.92;;;13.70;99.90;;;;;;5002154;28;20075;-67
2023/05/09 02:37:58;;;;;;;27.60;15.77;;;13.70;99.90;;;;;;5009239;28;20105;-67
2023/05/09 02:40:27;;;;;;;23.73;16.27;;;13.80;99.90;;;;;;5009147;28;20045;-67
2023/05/09 02:42:52;;;;;;;28.02;16.45;;;13.70;99.90;;;;;;5005964;28;20033;-67
2023/05/09 02:45:18;;;;;;;26.42;17.27;;;13.70;99.90;;;;;;5009971;28;20626;-67
2023/05/09 02:47:44;;;;;;;25.08;17.25;;;13.70;99.90;;;;;;5010408;28;20407;-67
2023/05/09 02:50:10;;;;;;;27.42;17.88;;;13.70;99.90;;;;;;5007980;28;20025;-67
2023/05/09 02:52:36;;;;;;;26.50;16.77;;;13.70;99.90;;;;;;5001293;28;20096;-67
2023/05/09 02:55:02;;;;;;;28.63;17.48;;;13.60;99.90;;;;;;5003045;28;20484;-67
2023/05/09 02:57:27;;;;;;;30.10;17.08;;;13.60;99.90;;;;;;4994652;28;20404;-67
2023/05/09 02:59:53;;;;;;;30.08;18.25;;;13.60;99.90;;;;;;5004321;28;20026;-67
2023/05/09 03:02:19;;;;;;;31.30;18.92;;;13.60;99.90;;;;;;4989481;28;20050;-67
2023/05/09 03:04:44;;;;;;;29.27;17.83;;;13.60;99.90;;;;;;4994604;28;20032;-67
2023/05/09 03:07:11;;;;;;;38.28;19.50;;;13.70;99.90;;;;;;5004231;28;20807;-67
2023/05/09 03:09:36;;;;;;;28.17;18.02;;;13.70;99.90;;;;;;4990180;28;20088;-67
2023/05/09 03:12:03;;;;;;;29.38;18.35;;;13.80;99.90;;;;;;5006079;28;20050;-66
2023/05/09 03:14:28;;;;;;;28.92;18.13;;;13.70;99.90;;;;;;5005794;28;20029;-66
2023/05/09 03:16:54;;;;;;;30.55;18.20;;;13.80;99.90;;;;;;5002982;28;20029;-67
2023/05/09 03:19:20;;;;;;;28.92;17.45;;;13.80;99.90;;;;;;5001676;28;20045;-67
2023/05/09 03:21:45;;;;;;;27.98;18.27;;;13.80;99.90;;;;;;5007754;28;20049;-67
2023/05/09 03:24:11;;;;;;;30.42;18.58;;;13.80;99.90;;;;;;5004833;28;20022;-67
2023/05/09 03:26:36;;;;;;;28.58;17.75;;;13.90;99.90;;;;;;5011851;28;20637;-67
2023/05/09 03:29:03;;;;;;;25.60;16.50;;;13.90;99.90;;;;;;5012766;28;20056;-67
2023/05/09 03:31:28;;;;;;;27.00;16.70;;;13.90;99.90;;;;;;5006881;28;20399;-67
2023/05/09 03:33:54;;;;;;;27.35;17.23;;;14.00;99.90;;;;;;5004386;28;20030;-67
2023/05/09 03:36:20;;;;;;;33.20;17.30;;;14.00;99.90;;;;;;5007982;28;20037;-67
2023/05/09 03:38:45;;;;;;;24.67;16.20;;;14.00;99.90;;;;;;5006531;28;20078;-67
2023/05/09 03:41:13;;;;;;;24.98;16.55;;;14.00;99.90;;;;;;5000737;28;20041;-66
2023/05/09 03:43:39;;;;;;;27.08;17.10;;;14.00;99.90;;;;;;4994861;28;20113;-67
2023/05/09 03:46:05;;;;;;;27.92;17.75;;;14.00;99.90;;;;;;5001054;28;20106;-67
2023/05/09 03:48:30;;;;;;;24.30;16.65;;;14.00;99.90;;;;;;5007468;28;20026;-67
2023/05/09 03:50:56;;;;;;;26.20;16.27;;;14.10;99.90;;;;;;5008500;28;20065;-67
2023/05/09 03:53:21;;;;;;;30.35;18.30;;;14.00;99.90;;;;;;5006020;28;20376;-67
2023/05/09 03:55:47;;;;;;;31.15;17.88;;;14.10;99.90;;;;;;5005834;28;20392;-67
2023/05/09 03:58:13;;;;;;;27.38;17.33;;;14.10;99.90;;;;;;4998729;28;20037;-67
2023/05/09 04:00:40;;;;;;;26.02;16.65;;;14.10;99.90;;;;;;5002735;28;20026;-67
2023/05/09 04:03:05;;;;;;;30.88;18.85;;;14.10;99.90;;;;;;4989402;28;20066;-67
2023/05/09 04:05:32;;;;;;;28.17;17.83;;;14.10;99.90;;;;;;5005301;28;20696;-67
2023/05/09 04:07:58;;;;;;;28.88;18.13;;;14.10;99.90;;;;;;4996419;28;20613;-68
2023/05/09 04:10:24;;;;;;;29.58;18.02;;;14.10;99.90;;;;;;4999852;28;20034;-67
2023/05/09 04:12:50;;;;;;;31.27;18.95;;;14.10;99.90;;;;;;5010096;28;20030;-68
2023/05/09 04:15:16;;;;;;;27.90;17.10;;;14.10;99.90;;;;;;5000702;28;20029;-67
2023/05/09 04:17:42;;;;;;;27.85;17.77;;;14.10;99.90;;;;;;5002485;28;20045;-67
2023/05/09 04:20:09;;;;;;;27.30;16.70;;;14.20;99.90;;;;;;5008055;28;20514;-67
2023/05/09 04:22:35;;;;;;;33.08;17.38;;;14.20;99.90;;;;;;5007928;28;20368;-67
2023/05/09 04:25:02;;;;;;;24.77;16.77;;;14.20;99.90;;;;;;5006301;28;20037;-67
2023/05/09 04:27:28;;;;;;;28.95;17.27;;;14.30;99.90;;;;;;5008796;28;20026;-67
2023/05/09 04:29:53;;;;;;;27.55;17.30;;;14.30;99.90;;;;;;5011020;28;20037;-67
2023/05/09 04:32:19;;;;;;;26.58;16.50;;;14.40;99.90;;;;;;5001174;28;20029;-67
2023/05/09 04:34:45;;;;;;;27.33;17.23;;;14.40;99.90;;;;;;4997398;28;20046;-68
2023/05/09 04:37:12;;;;;;;31.05;18.17;;;14.40;99.90;;;;;;4990849;28;20034;-67
2023/05/09 04:39:38;;;;;;;27.73;18.58;;;14.40;99.90;;;;;;5002960;28;20041;-67
2023/05/09 04:42:03;;;;;;;28.00;16.80;;;14.40;99.90;;;;;;5010196;28;20395;-67
2023/05/09 04:44:30;;;;;;;26.40;16.77;;;14.40;99.90;;;;;;5003910;28;20121;-67
2023/05/09 04:46:56;;;;;;;27.27;17.02;;;14.50;99.90;;;;;;5005638;28;20049;-68
2023/05/09 04:49:22;;;;;;;33.95;16.00;;;14.60;99.90;;;;;;4989872;28;20105;-67
2023/05/09 04:51:48;;;;;;;24.80;17.35;;;14.60;99.90;;;;;;5002708;28;20117;-67
2023/05/09 04:54:13;;;;;;;29.92;18.85;;;14.60;99.90;;;;;;5011148;28;20033;-67
2023/05/09 04:56:39;;;;;;;23.25;16.45;;;14.60;99.90;;;;;;5006878;28;20164;-67
2023/05/09 04:59:05;;;;;;;27.38;17.05;;;14.60;99.90;;;;;;5000764;28;20034;-67
2023/05/09 05:01:31;;;;;;;29.77;17.05;;;14.70;99.90;;;;;;5003563;28;20030;-66
2023/05/09 05:03:56;;;;;;;24.75;17.27;;;14.70;99.90;;;;;;4988768;28;20054;-67
2023/05/09 05:06:22;;;;;;;25.88;16.83;;;14.80;99.90;;;;;;4992833;28;20022;-67
2023/05/09 05:08:48;;;;;;;27.42;18.30;;;14.90;99.90;;;;;;5009986;28;20033;-68
2023/05/09 05:11:13;;;;;;;29.48;18.08;;;14.90;99.90;;;;;;5000191;28;20074;-68
2023/05/09 05:13:39;;;;;;;31.67;18.23;;;14.90;99.90;;;;;;4999306;28;20036;-67
2023/05/09 05:16:05;;;;;;;30.77;18.15;;;14.90;99.90;;;;;;5003900;28;20025;-68
2023/05/09 05:18:30;;;;;;;25.20;17.23;;;14.90;99.90;;;;;;5003667;28;20033;-68
2023/05/09 05:20:56;;;;;;;30.15;17.60;;;14.90;99.90;;;;;;5005554;28;20041;-67
2023/05/09 05:23:21;;;;;;;23.85;16.60;;;15.00;99.90;;;;;;5001799;28;20519;-67
2023/05/09 05:25:47;;;;;;;27.15;17.60;;;15.00;99.90;;;;;;5008667;28;20080;-67
2023/05/09 05:28:12;;;;;;;24.08;16.45;;;15.10;99.90;;;;;;4998514;28;20455;-67
2023/05/09 05:30:39;;;;;;;31.10;17.55;;;15.20;99.90;;;;;;5005867;28;20030;-67
2023/05/09 05:33:05;;;;;;;27.23;16.52;;;15.30;99.90;;;;;;5000586;28;20025;-67
2023/05/09 05:35:30;;;;;;;29.60;16.70;;;15.30;99.90;;;;;;5007492;28;20160;-68
2023/05/09 05:37:56;;;;;;;28.08;17.00;;;15.30;99.90;;;;;;5009703;28;20030;-67
2023/05/09 05:40:21;;;;;;;28.73;16.80;;;15.40;99.90;;;;;;5007722;28;20490;-67
2023/05/09 05:42:47;;;;;;;27.42;16.30;;;15.50;99.90;;;;;;5002572;28;20076;-67
2023/05/09 05:45:13;;;;;;;25.83;17.55;;;15.50;99.90;;;;;;5006064;28;20029;-67
2023/05/09 05:47:38;;;;;;;29.58;16.50;;;15.50;99.90;;;;;;5006230;28;20050;-67
2023/05/09 05:50:07;;;;;;;25.38;15.68;;;15.50;99.90;;;;;;5010061;28;20485;-68
2023/05/09 05:52:32;;;;;;;24.73;16.40;;;15.60;99.90;;;;;;5003069;28;20026;-68
2023/05/09 05:54:58;;;;;;;23.75;15.55;;;15.80;99.90;;;;;;5002544;28;20507;-67
2023/05/09 05:57:24;;;;;;;21.75;14.63;;;15.90;99.90;;;;;;4997637;28;20091;-66
2023/05/09 05:59:50;;;;;;;24.00;14.77;;;16.10;99.90;;;;;;5004561;28;20026;-67
2023/05/09 06:02:16;;;;;;;22.60;14.38;;;16.30;99.90;;;;;;4996008;28;20038;-67
2023/05/09 06:04:42;;;;;;;27.25;15.95;;;16.50;99.90;;;;;;4987081;28;20049;-67
2023/05/09 06:07:09;;;;;;;28.13;15.43;;;16.60;99.90;;;;;;4988495;28;20031;-67
2023/05/09 06:09:34;;;;;;;18.90;12.63;;;16.90;99.90;;;;;;4998230;28;20030;-67
2023/05/09 06:12:00;;;;;;;20.48;14.45;;;17.10;99.90;;;;;;4996167;28;20034;-66
2023/05/09 06:14:26;;;;;;;18.35;12.93;;;17.10;99.90;;;;;;5008726;28;20591;-67
2023/05/09 06:16:52;;;;;;;18.83;12.63;;;17.10;99.90;;;;;;5008452;28;20038;-67
2023/05/09 06:19:18;;;;;;;20.88;12.80;;;17.20;99.90;;;;;;5008560;28;20040;-66
2023/05/09 06:21:43;;;;;;;24.50;12.50;;;17.10;99.90;;;;;;5007463;28;20022;-66
2023/05/09 06:24:09;;;;;;;18.80;13.32;;;17.20;99.90;;;;;;5003265;28;20037;-67
2023/05/09 06:26:35;;;;;;;20.55;12.60;;;17.10;99.90;;;;;;5008986;28;20503;-67
2023/05/09 06:29:02;;;;;;;17.70;12.23;;;17.20;99.90;;;;;;5008972;28;20575;-68
2023/05/09 06:31:28;;;;;;;21.08;12.77;;;17.30;99.90;;;;;;5008377;28;20100;-67
2023/05/09 06:33:54;;;;;;;18.42;12.48;;;17.20;99.90;;;;;;4992892;28;20026;-67
2023/05/09 06:36:19;;;;;;;22.17;13.55;;;17.30;99.90;;;;;;4996359;28;20030;-67
2023/05/09 06:38:45;;;;;;;20.48;13.30;;;17.50;99.90;;;;;;5007293;28;20033;-67
2023/05/09 06:41:11;;;;;;;15.82;11.60;;;17.40;99.90;;;;;;5006659;28;20022;-67
2023/05/09 06:43:36;;;;;;;19.17;12.13;;;17.60;99.90;;;;;;5007598;28;20030;-68
2023/05/09 06:46:02;;;;;;;19.02;12.40;;;17.60;99.90;;;;;;5010316;28;20049;-67
2023/05/09 06:48:28;;;;;;;19.60;11.57;;;17.70;99.90;;;;;;5006008;28;20495;-67
2023/05/09 06:50:53;;;;;;;17.38;11.88;;;17.80;99.90;;;;;;5009136;28;20079;-67
2023/05/09 06:53:19;;;;;;;20.02;12.80;;;17.90;99.90;;;;;;5009750;28;20487;-67
2023/05/09 06:55:45;;;;;;;20.52;12.85;;;18.00;99.90;;;;;;5008494;28;20070;-67
2023/05/09 06:58:11;;;;;;;16.63;11.80;;;17.80;99.90;;;;;;5012042;28;20029;-67
2023/05/09 07:00:36;;;;;;;16.85;11.32;;;17.90;99.90;;;;;;5010800;28;20029;-67
2023/05/09 07:03:02;;;;;;;16.92;11.73;;;18.10;99.90;;;;;;4997250;28;20522;-67
2023/05/09 07:05:28;;;;;;;16.50;10.70;;;17.90;99.90;;;;;;4996692;28;20014;-68
2023/05/09 07:07:54;;;;;;;18.05;11.43;;;17.90;99.90;;;;;;5010381;28;20034;-68
2023/05/09 07:10:21;;;;;;;15.00;10.88;;;18.00;99.90;;;;;;5010085;28;20488;-68
2023/05/09 07:12:46;;;;;;;15.07;10.90;;;18.10;99.90;;;;;;4987388;28;20041;-67
2023/05/09 07:15:12;;;;;;;19.00;10.90;;;18.20;99.90;;;;;;5009627;28;20034;-68
2023/05/09 07:17:38;;;;;;;15.82;10.32;;;18.50;99.90;;;;;;5007816;28;20112;-67
2023/05/09 07:20:05;;;;;;;16.80;9.98;;;18.80;99.90;;;;;;5011390;28;20034;-67
2023/05/09 07:22:30;;;;;;;16.15;10.57;;;19.00;99.90;;;;;;5012626;28;20080;-67
2023/05/09 07:24:56;;;;;;;13.13;9.43;;;19.30;99.90;;;;;;5007002;28;20019;-67
2023/05/09 07:27:22;;;;;;;11.90;9.20;;;20.10;99.90;;;;;;5008785;28;20049;-67
2023/05/09 07:29:51;;;;;;;13.95;9.30;;;20.30;99.90;;;;;;4988908;28;20065;-67
2023/05/09 07:32:20;;;;;;;13.05;9.52;;;20.60;99.90;;;;;;4990741;28;20404;-67
2023/05/09 07:34:46;;;;;;;13.93;9.40;;;20.70;99.90;;;;;;4992633;28;20061;-67
2023/05/09 07:37:12;;;;;;;15.57;9.73;;;21.30;99.90;;;;;;5006295;28;20063;-67
2023/05/09 07:39:37;;;;;;;9.38;7.20;;;21.90;99.90;;;;;;5006575;28;20061;-67
2023/05/09 07:42:04;;;;;;;18.00;8.07;;;23.00;99.90;;;;;;5011208;28;20034;-65
2023/05/09 07:44:30;;;;;;;12.48;8.43;;;23.70;99.90;;;;;;5006356;28;20041;-66
2023/05/09 07:46:58;;;;;;;9.70;6.85;;;24.20;99.90;;;;;;5008739;28;20030;-66
2023/05/09 07:49:24;;;;;;;9.30;7.00;;;24.50;99.90;;;;;;5000448;28;20026;-65
2023/05/09 07:51:50;;;;;;;8.77;7.03;;;25.10;98.70;;;;;;5009567;28;20038;-66
2023/05/09 07:54:15;;;;;;;9.57;7.38;;;24.80;98.90;;;;;;5007664;28;20026;-65
2023/05/09 07:56:41;;;;;;;12.18;6.57;;;24.80;98.80;;;;;;5006789;28;20030;-65
2023/05/09 07:59:07;;;;;;;8.07;6.10;;;24.80;98.60;;;;;;4986351;28;20026;-66
2023/05/09 08:01:33;;;;;;;9.07;6.35;;;24.30;98.90;;;;;;5012065;28;20083;-66
2023/05/09 08:03:59;;;;;;;10.40;6.45;;;24.20;97.90;;;;;;4968063;28;20042;-66
2023/05/09 08:06:25;;;;;;;10.48;6.93;;;23.90;99.20;;;;;;5000649;28;20068;-65
2023/05/09 08:08:51;;;;;;;10.93;7.00;;;23.00;99.90;;;;;;5004723;28;20026;-66
2023/05/09 08:11:16;;;;;;;8.80;6.55;;;22.30;99.90;;;;;;5000598;28;20025;-64
2023/05/09 08:13:42;;;;;;;9.63;6.63;;;21.90;99.90;;;;;;5006389;28;20166;-65
2023/05/09 08:16:07;;;;;;;9.98;6.28;;;21.40;99.90;;;;;;4998104;28;20026;-65
2023/05/09 08:18:33;;;;;;;9.00;6.68;;;21.30;99.90;;;;;;5010287;28;20433;-65
2023/05/09 08:20:59;;;;;;;10.07;5.88;;;21.10;99.90;;;;;;5012277;28;20475;-65
2023/05/09 08:23:25;;;;;;;8.23;5.22;;;21.10;99.90;;;;;;5010394;28;20018;-64
2023/05/09 08:25:54;;;;;;;10.93;5.68;;;21.10;99.90;;;;;;5006438;28;20022;-66
2023/05/09 08:28:22;;;;;;;13.05;5.43;;;21.00;99.90;;;;;;5006089;28;20112;-66
2023/05/09 08:30:51;;;;;;;11.70;6.00;;;21.10;99.90;;;;;;5009177;28;20033;-65
2023/05/09 08:33:17;;;;;;;7.78;5.43;;;21.10;99.90;;;;;;5010233;28;20048;-65
2023/05/09 08:35:42;;;;;;;10.18;6.35;;;21.20;99.90;;;;;;5011354;28;20112;-65
2023/05/09 08:38:08;;;;;;;7.20;5.47;;;21.30;99.90;;;;;;5000330;28;20024;-66
2023/05/09 08:40:37;;;;;;;10.40;6.32;;;21.20;99.90;;;;;;5011720;28;20092;-67
2023/05/09 08:43:06;;;;;;;9.70;6.57;;;21.30;99.90;;;;;;5003463;28;20119;-66
2023/05/09 08:45:38;;;;;;;11.63;6.45;;;21.00;99.90;;;;;;5012456;28;20017;-66
2023/05/09 08:48:05;;;;;;;9.73;5.03;;;21.00;99.90;;;;;;5010877;28;20053;-65
2023/05/09 08:50:31;;;;;;;7.38;4.90;;;21.50;99.90;;;;;;5005425;28;20388;-66
2023/05/09 08:52:58;;;;;;;7.78;5.70;;;21.50;99.90;;;;;;5008366;28;20076;-65
2023/05/09 08:55:24;;;;;;;6.78;4.85;;;21.40;99.90;;;;;;5007316;28;20033;-66
2023/05/09 08:57:51;;;;;;;8.45;5.75;;;21.40;99.90;;;;;;5009759;28;20483;-66
2023/05/09 09:00:19;;;;;;;9.65;4.70;;;21.50;99.90;;;;;;5010405;28;20036;-66
2023/05/09 09:02:45;;;;;;;7.57;3.95;;;21.60;99.90;;;;;;4992653;28;20403;-66
2023/05/09 09:05:11;;;;;;;6.13;4.18;;;21.80;99.90;;;;;;4988106;28;20046;-66
2023/05/09 09:07:38;;;;;;;6.43;3.83;;;22.10;99.90;;;;;;4997309;28;20027;-66
2023/05/09 09:10:04;;;;;;;6.35;3.60;;;22.30;99.90;;;;;;5005849;28;20064;-66
2023/05/09 09:12:31;;;;;;;6.47;3.70;;;22.80;99.90;;;;;;5002336;28;20040;-66
2023/05/09 09:15:03;;;;;;;5.32;3.33;;;23.00;99.90;;;;;;5005463;28;20040;-66
2023/05/09 09:17:30;;;;;;;4.63;3.00;;;23.50;99.90;;;;;;5008292;28;20096;-66
2023/05/09 09:19:59;;;;;;;3.78;3.00;;;23.60;99.90;;;;;;5005205;28;20569;-66
2023/05/09 09:22:32;;;;;;;9.90;3.30;;;23.90;99.40;;;;;;5011328;28;20041;-66
2023/05/09 09:24:59;;;;;;;5.45;3.75;;;23.80;99.60;;;;;;4991045;28;20030;-65
2023/05/09 09:27:25;;;;;;;5.40;2.55;;;23.90;98.90;;;;;;5001399;28;20572;-65
2023/05/09 09:29:50;;;;;;;3.75;2.78;;;24.00;99.60;;;;;;4995694;28;20097;-66
2023/05/09 09:32:17;;;;;;;6.38;3.20;;;24.10;98.70;;;;;;4994337;28;20530;-66
2023/05/09 09:34:43;;;;;;;5.00;2.70;;;23.80;99.00;;;;;;5009610;28;20113;-65
2023/05/09 09:37:08;;;;;;;4.22;2.22;;;23.60;99.20;;;;;;5007506;28;20464;-66
2023/05/09 09:39:34;;;;;;;4.00;2.53;;;23.20;99.50;;;;;;5004149;28;20030;-66
2023/05/09 09:42:17;;;;;;;6.00;2.95;;;23.30;99.30;;;;;;5001031;28;20041;-65
2023/05/09 09:44:43;;;;;;;6.38;2.97;;;23.30;99.40;;;;;;5006399;28;20022;-66
2023/05/09 09:47:09;;;;;;;4.43;2.78;;;23.60;99.90;;;;;;5000212;28;20109;-66
2023/05/09 09:49:35;;;;;;;3.22;1.92;;;23.60;99.10;;;;;;5004991;28;20026;-66
2023/05/09 09:52:00;;;;;;;2.78;2.13;;;23.70;98.80;;;;;;5004250;28;20372;-66
2023/05/09 09:54:27;;;;;;;3.78;2.10;;;23.40;98.00;;;;;;5003654;28;20153;-65
2023/05/09 09:56:53;;;;;;;2.75;2.10;;;23.50;98.00;;;;;;5002747;28;20034;-65
2023/05/09 09:59:26;;;;;;;4.10;2.33;;;23.60;99.00;;;;;;5007646;28;20034;-65
2023/05/09 10:02:05;;;;;;;2.55;2.05;;;23.70;98.10;;;;;;5005515;28;20041;-66
2023/05/09 10:04:33;;;;;;;3.92;1.90;;;23.80;98.80;;;;;;4991340;28;20449;-65
2023/05/09 10:07:02;;;;;;;4.63;2.05;;;24.20;97.60;;;;;;5004832;28;20022;-65
2023/05/09 10:09:28;;;;;;;3.25;2.40;;;24.50;97.40;;;;;;5004039;28;20061;-66
2023/05/09 10:11:55;;;;;;;4.22;2.35;;;25.00;96.80;;;;;;5007767;28;20061;-65
2023/05/09 10:14:24;;;;;;;6.43;2.53;;;24.80;96.40;;;;;;5004475;28;20037;-66
2023/05/09 10:17:00;;;;;;;4.95;2.50;;;24.90;96.70;;;;;;5003870;28;20106;-65
2023/05/09 10:19:28;;;;;;;5.55;3.53;;;25.20;95.40;;;;;;5002883;28;20042;-66
2023/05/09 10:21:58;;;;;;;3.70;2.90;;;25.00;96.00;;;;;;5016617;28;20034;-65
2023/05/09 10:24:33;;;;;;;6.22;3.38;;;24.80;96.30;;;;;;5007727;28;20109;-66
2023/05/09 10:27:03;;;;;;;4.15;2.95;;;25.40;95.70;;;;;;5009178;28;20018;-67
2023/05/09 10:29:37;;;;;;;3.85;3.20;;;25.50;94.30;;;;;;5006766;28;20029;-66
2023/05/09 10:32:16;;;;;;;4.65;2.80;;;25.40;94.80;;;;;;5012017;28;20116;-66
2023/05/09 10:34:46;;;;;;;6.15;3.38;;;24.90;94.80;;;;;;5013903;28;20029;-66
2023/05/09 10:37:12;;;;;;;13.80;6.45;;;24.80;94.80;;;;;;5008677;28;20045;-66
2023/05/09 10:39:39;;;;;;;5.78;3.50;;;24.90;94.30;;;;;;5005993;28;20026;-66
2023/05/09 10:42:06;;;;;;;4.82;3.13;;;24.60;95.00;;;;;;5010401;28;20030;-66
2023/05/09 10:44:32;;;;;;;7.95;4.55;;;24.20;95.70;;;;;;5011067;28;20029;-66
2023/05/09 10:47:00;;;;;;;6.15;4.45;;;24.20;95.30;;;;;;5011165;28;20065;-66
2023/05/09 10:49:26;;;;;;;7.95;4.03;;;24.00;95.90;;;;;;5015103;28;20022;-66
2023/05/09 10:51:52;;;;;;;11.65;4.55;;;23.60;96.30;;;;;;5010908;28;20152;-67
2023/05/09 10:54:27;;;;;;;7.43;4.40;;;23.90;97.60;;;;;;5010908;28;20754;-65
2023/05/09 10:56:52;;;;;;;6.75;3.53;;;24.20;96.80;;;;;;5012301;28;20037;-67
2023/05/09 10:59:41;;;;;;;8.65;3.10;;;24.40;95.70;;;;;;5014010;28;20431;-66
2023/05/09 11:02:17;;;;;;;7.28;2.80;;;24.50;96.60;;;;;;5011893;28;20025;-66
2023/05/09 11:04:44;;;;;;;4.43;3.22;;;24.70;95.90;;;;;;4999889;28;20033;-66
2023/05/09 11:07:26;;;;;;;5.80;3.22;;;24.50;94.80;;;;;;5014693;28;20037;-66
2023/05/09 11:10:05;;;;;;;4.15;3.20;;;24.70;95.70;;;;;;5014053;28;20022;-66
2023/05/09 11:12:31;;;;;;;5.10;2.83;;;24.80;95.00;;;;;;5007798;28;20056;-66
2023/05/09 11:15:06;;;;;;;4.68;2.72;;;25.20;94.90;;;;;;5006116;28;20539;-67
2023/05/09 11:17:37;;;;;;;3.95;2.90;;;25.40;94.20;;;;;;5013585;28;20557;-67
2023/05/09 11:20:07;;;;;;;5.13;2.65;;;25.50;94.90;;;;;;5014175;28;20369;-66
2023/05/09 11:22:43;;;;;;;4.85;2.65;;;25.60;94.10;;;;;;5011538;28;20030;-65
2023/05/09 11:25:11;;;;;;;5.00;2.20;;;25.70;92.70;;;;;;5008798;28;20026;-66
2023/05/09 11:27:45;;;;;;;3.55;2.03;;;25.60;92.60;;;;;;5011557;28;20506;-66
2023/05/09 11:30:13;;;;;;;6.10;1.58;;;25.60;93.00;;;;;;5009733;28;20030;-65
2023/05/09 11:32:49;;;;;;;2.38;1.50;;;25.40;93.00;;;;;;5007517;28;20042;-66
2023/05/09 11:35:18;;;;;;;1.30;1.20;;;25.20;92.80;;;;;;5006289;28;20037;-66
2023/05/09 11:38:03;;;;;;;3.00;1.42;;;25.20;91.60;;;;;;5001910;28;20499;-66
2023/05/09 11:40:29;;;;;;;2.53;1.08;;;25.40;92.80;;;;;;5003732;28;20072;-67
2023/05/09 11:42:57;;;;;;;2.30;1.33;;;25.50;91.80;;;;;;5003957;28;20041;-67
2023/05/09 11:45:25;;;;;;;4.40;1.48;;;25.20;92.20;;;;;;5006547;28;20491;-66
2023/05/09 11:47:51;;;;;;;1.95;1.50;;;25.60;91.40;;;;;;4999648;28;20057;-66
2023/05/09 11:50:19;;;;;;;1.77;1.30;;;25.60;91.40;;;;;;4984473;28;20030;-66
2023/05/09 11:52:46;;;;;;;3.83;1.75;;;25.30;91.50;;;;;;5006803;28;20049;-66
2023/05/09 11:55:17;;;;;;;4.32;1.95;;;24.70;91.40;;;;;;5008119;28;20169;-67
2023/05/09 11:57:48;;;;;;;4.22;1.52;;;24.80;93.30;;;;;;5008610;28;20531;-66
2023/05/09 12:00:24;;;;;;;1.65;1.33;;;25.10;92.90;;;;;;4983338;28;20400;-66
2023/05/09 12:02:51;;;;;;;2.78;1.20;;;25.80;92.30;;;;;;5006868;28;20033;-66
2023/05/09 12:05:18;;;;;;;2.85;1.25;;;25.70;91.90;;;;;;4993312;28;20065;-66
2023/05/09 12:07:45;;;;;;;4.05;1.40;;;25.80;91.70;;;;;;5011706;28;20030;-67
2023/05/09 12:10:14;;;;;;;2.20;1.50;;;26.10;91.80;;;;;;4997398;28;20492;-66
2023/05/09 12:12:48;;;;;;;1.60;1.20;;;26.30;92.30;;;;;;5004858;28;20022;-66
2023/05/09 12:15:15;;;;;;;6.22;1.48;;;25.90;91.30;;;;;;5001487;28;20555;-66
2023/05/09 12:17:42;;;;;;;4.30;1.65;;;25.70;90.90;;;;;;5004542;28;20105;-66
2023/05/09 12:20:08;;;;;;;2.72;1.40;;;25.50;91.20;;;;;;5000264;28;20045;-66
2023/05/09 12:22:36;;;;;;;2.60;1.58;;;25.20;92.50;;;;;;5002215;28;20125;-67
2023/05/09 12:25:06;;;;;;;4.85;1.88;;;25.30;91.80;;;;;;5000690;28;20026;-67
2023/05/09 12:27:34;;;;;;;2.78;1.83;;;24.90;92.00;;;;;;5003533;28;20033;-67
2023/05/09 12:30:00;;;;;;;3.38;1.70;;;24.80;93.10;;;;;;5002659;28;20050;-66
2023/05/09 12:32:31;;;;;;;8.38;2.40;;;25.20;93.00;;;;;;5004423;28;20033;-66
2023/05/09 12:34:58;;;;;;;5.75;2.50;;;25.40;92.00;;;;;;5018496;28;20037;-67
2023/05/09 12:37:23;;;;;;;4.22;2.53;;;25.20;91.70;;;;;;5019648;28;20391;-66